x

Sand Key, Fl (sanf1) Weather Station

3:50pm - Tue 16th Sep 2014 All times are CDT. -4 hours from GMT.

  • Wind
    10mph, 13mph gusts
  • Air Temp 83°f
  • Sea Pressure 1015.9mb
  • Sand Key, Fl
  • Sand Key, Fl

More Historic Weather Station data

Upgrade to MSW Pro to gain access to the past 30 days of data for over 8000 Wavebouys and Weather Stations around the globe.

Join Pro

Comparision Forecast

View Surf forecast
   
Tue 09/16 3:50pm 10 13 mph 1015.9mb 83f
2:50pm 7 9 mph 1016.6mb 83f
1:50pm 8 9 mph 1017.2mb 83f
12:50pm 9 11 mph 1017.7mb 83f
11:50am 10 11 mph 1018mb 83f
10:50am 11 13 mph 1018.1mb 82f
9:50am 9 10 mph 1018.5mb 82f
8:50am 10 11 mph 1018.6mb 82f
7:50am 11 13 mph 1018.5mb 82f
6:50am 11 14 mph 1018.3mb 82f
5:50am 13 15 mph 1017.9mb 82f
4:50am 13 14 mph 1017.8mb 82f
3:50am 11 14 mph 1017.9mb 83f
2:50am 10 13 mph 1018.4mb 82f
1:50am 11 14 mph 1019mb 82f
12:50am 13 15 mph 1019.5mb 83f
Mon 09/15 11:50pm 14 16 mph 1019.6mb 83f
10:50pm 13 15 mph 1019.5mb 83f
9:50pm 13 15 mph 1019.8mb 84f
8:50pm 13 15 mph 1019.2mb 84f
7:50pm 11 14 mph 1018.7mb 84f
6:50pm 11 13 mph 1018.2mb 84f
5:50pm 13 14 mph 1018.3mb 84f
4:50pm 13 14 mph 1018.2mb 84f
3:50pm 11 14 mph 1018.6mb 84f
2:50pm 10 13 mph 1019.1mb 84f
1:50pm 14 15 mph 1019.8mb 84f
12:50pm 15 16 mph 1019.9mb 84f
11:50am 14 16 mph 1020.4mb 84f
10:50am 15 16 mph 1020.1mb 85f
9:50am 14 15 mph 1020.1mb 84f
8:50am 14 17 mph 1019.9mb 84f
7:50am 14 17 mph 1019.5mb 84f
6:50am 14 16 mph 1019.1mb 84f
5:50am 15 17 mph 1018.9mb 84f
4:50am 16 18 mph 1018.6mb 84f
3:50am 17 21 mph 1018.5mb 84f
2:50am 20 22 mph 1018.7mb 84f
1:50am 21 23 mph 1019.1mb 84f
12:50am 18 21 mph 1019.4mb 84f
Sun 09/14 11:50pm 17 21 mph 1019.6mb 84f
10:50pm 20 22 mph 1019.3mb 84f
9:50pm 21 23 mph 1018.9mb 84f
8:50pm 20 22 mph 1018.3mb 84f
7:50pm 20 22 mph 1017.9mb 84f
6:50pm 15 20 mph 1017.9mb 82f
5:50pm 16 18 mph 1017.9mb 82f
4:50pm 16 18 mph 1018mb 81f
3:50pm 13 15 mph 1018.2mb 81f
2:50pm 14 16 mph 1018.8mb 82f
1:50pm 13 15 mph 1019.2mb 81f
12:50pm 9 11 mph 1019.5mb 79f
11:50am 11 14 mph 1019.9mb 78f
10:50am 13 15 mph 1020.2mb 77f
9:50am 18 23 mph 1019.8mb 76f
8:50am 30 37 mph 1019.1mb 74f
7:50am 14 17 mph 1017.8mb 82f
6:50am 14 16 mph 1017.3mb 82f
5:50am 6 8 mph 1017.2mb 81f
4:50am 7
mph
1016.7mb 81f
3:50am 3 5 mph 1016.6mb 81f
2:50am 9 11 mph 1016.9mb 80f
1:50am 8 14 mph 1017.6mb 79f
12:50am  -  mph 1017.9mb 78f
Sat 09/13 11:50pm 2 17 mph 1017.9mb 77f
10:50pm 6 14 mph 1018.2mb 76f
9:50pm 25 36 mph 1017.1mb 75f
8:50pm 14 23 mph 1016mb 80f
7:50pm 7 9 mph 1015.6mb 76f
6:50pm 26 34 mph 1015.4mb 76f
5:50pm 11 14 mph 1014.4mb 82f
4:50pm 9 11 mph 1014mb 81f
3:50pm 22 24 mph 1014.5mb 80f
2:50pm 14 22 mph 1015.2mb 83f
1:50pm 13 15 mph 1015.9mb 83f
12:50pm 11 14 mph 1016.1mb 83f
11:50am 13 16 mph 1016.5mb 83f
10:50am 17 20 mph 1016mb 83f
9:50am 17 21 mph 1015.8mb 82f
8:50am 17 21 mph 1015.5mb 82f
7:50am 15 17 mph 1015.3mb 81f
6:50am 16 18 mph 1014.7mb 81f
5:50am 11 15 mph 1013.9mb 80f
4:50am 13 17 mph 1013.6mb 80f
3:50am 21 23 mph 1013.6mb 80f
2:50am 22 24 mph 1014.4mb 81f
1:50am 20 25 mph 1015mb 78f
12:50am 11 14 mph 1015.3mb 81f
Fri 09/12 11:50pm 10 13 mph 1015.2mb 81f
10:50pm 10 14 mph 1015.5mb 80f
9:50pm 11 14 mph 1015.3mb 77f
8:50pm 17 20 mph 1015mb 79f